sensor_id;sensor_type;location;lat;lon;timestamp;temperature;humidity
64874;HTU21D;51367;45.204;38.576;2022-11-15T00:01:17;0.33;81.49
64874;HTU21D;51367;45.204;38.576;2022-11-15T00:04:01;0.31;81.53
64874;HTU21D;51367;45.204;38.576;2022-11-15T00:06:46;0.29;81.55
64874;HTU21D;51367;45.204;38.576;2022-11-15T00:09:30;0.27;81.53
64874;HTU21D;51367;45.204;38.576;2022-11-15T00:12:15;0.23;81.52
64874;HTU21D;51367;45.204;38.576;2022-11-15T00:14:59;0.19;81.52
64874;HTU21D;51367;45.204;38.576;2022-11-15T00:17:44;0.16;81.52
64874;HTU21D;51367;45.204;38.576;2022-11-15T00:20:28;0.12;81.59
64874;HTU21D;51367;45.204;38.576;2022-11-15T00:23:13;0.06;81.67
64874;HTU21D;51367;45.204;38.576;2022-11-15T00:25:58;0.05;81.74
64874;HTU21D;51367;45.204;38.576;2022-11-15T00:28:43;-0.00;81.72
64874;HTU21D;51367;45.204;38.576;2022-11-15T00:31:27;-0.03;81.79
64874;HTU21D;51367;45.204;38.576;2022-11-15T09:42:03;8.39;72.31
64874;HTU21D;51367;45.204;38.576;2022-11-15T09:45:15;8.45;72.68
64874;HTU21D;51367;45.204;38.576;2022-11-15T09:51:41;8.65;72.10
64874;HTU21D;51367;45.204;38.576;2022-11-15T09:54:37;8.73;71.81
64874;HTU21D;51367;45.204;38.576;2022-11-15T09:57:13;8.76;71.77
64874;HTU21D;51367;45.204;38.576;2022-11-15T10:02:43;8.83;72.37
64874;HTU21D;51367;45.204;38.576;2022-11-15T10:05:18;8.89;71.90
64874;HTU21D;51367;45.204;38.576;2022-11-15T10:08:25;8.96;71.83
64874;HTU21D;51367;45.204;38.576;2022-11-15T10:10:53;9.05;71.95
64874;HTU21D;51367;45.204;38.576;2022-11-15T10:13:26;9.12;71.74
64874;HTU21D;51367;45.204;38.576;2022-11-15T10:16:04;9.17;70.84
64874;HTU21D;51367;45.204;38.576;2022-11-15T10:21:29;9.21;70.71
64874;HTU21D;51367;45.204;38.576;2022-11-15T10:23:56;9.25;69.49
64874;HTU21D;51367;45.204;38.576;2022-11-15T10:26:23;9.26;69.48
64874;HTU21D;51367;45.204;38.576;2022-11-15T10:28:50;9.32;70.00
64874;HTU21D;51367;45.204;38.576;2022-11-15T10:31:27;9.32;69.50
64874;HTU21D;51367;45.204;38.576;2022-11-15T10:34:20;9.31;70.04
64874;HTU21D;51367;45.204;38.576;2022-11-15T10:36:58;9.37;70.03
64874;HTU21D;51367;45.204;38.576;2022-11-15T10:39:26;9.41;69.45
64874;HTU21D;51367;45.204;38.576;2022-11-15T10:41:53;9.41;69.60
64874;HTU21D;51367;45.204;38.576;2022-11-15T10:46:47;9.50;69.94
64874;HTU21D;51367;45.204;38.576;2022-11-15T10:49:21;9.54;68.55
64874;HTU21D;51367;45.204;38.576;2022-11-15T10:51:56;9.53;68.58
64874;HTU21D;51367;45.204;38.576;2022-11-15T10:54:35;9.55;68.89
64874;HTU21D;51367;45.204;38.576;2022-11-15T10:57:07;9.54;68.99
64874;HTU21D;51367;45.204;38.576;2022-11-15T10:59:37;9.54;68.66
64874;HTU21D;51367;45.204;38.576;2022-11-15T11:02:28;9.56;68.28
64874;HTU21D;51367;45.204;38.576;2022-11-15T11:04:55;9.56;68.74
64874;HTU21D;51367;45.204;38.576;2022-11-15T11:07:24;9.60;69.18
64874;HTU21D;51367;45.204;38.576;2022-11-15T11:09:58;9.61;69.33
64874;HTU21D;51367;45.204;38.576;2022-11-15T11:12:30;9.66;68.99
64874;HTU21D;51367;45.204;38.576;2022-11-15T11:14:58;9.68;68.73
64874;HTU21D;51367;45.204;38.576;2022-11-15T11:17:57;9.68;67.09
64874;HTU21D;51367;45.204;38.576;2022-11-15T11:20:42;9.66;67.17
64874;HTU21D;51367;45.204;38.576;2022-11-15T11:23:24;9.66;67.38
64874;HTU21D;51367;45.204;38.576;2022-11-15T11:29:04;9.66;68.12
64874;HTU21D;51367;45.204;38.576;2022-11-15T11:34:49;9.69;67.48
64874;HTU21D;51367;45.204;38.576;2022-11-15T11:37:39;9.66;66.59
64874;HTU21D;51367;45.204;38.576;2022-11-15T11:40:34;9.64;67.07
64874;HTU21D;51367;45.204;38.576;2022-11-15T11:48:48;9.70;67.10
64874;HTU21D;51367;45.204;38.576;2022-11-15T11:51:24;9.70;67.04
64874;HTU21D;51367;45.204;38.576;2022-11-15T11:54:00;9.71;66.80
64874;HTU21D;51367;45.204;38.576;2022-11-15T11:56:33;9.70;67.14
64874;HTU21D;51367;45.204;38.576;2022-11-15T11:59:41;9.72;67.55
64874;HTU21D;51367;45.204;38.576;2022-11-15T12:02:16;9.74;67.46
64874;HTU21D;51367;45.204;38.576;2022-11-15T12:04:49;9.71;67.35
64874;HTU21D;51367;45.204;38.576;2022-11-15T12:07:25;9.68;67.56
64874;HTU21D;51367;45.204;38.576;2022-11-15T12:09:59;9.66;67.94
64874;HTU21D;51367;45.204;38.576;2022-11-15T12:13:02;9.66;67.35
64874;HTU21D;51367;45.204;38.576;2022-11-15T12:15:32;9.65;67.33
64874;HTU21D;51367;45.204;38.576;2022-11-15T12:18:02;9.64;67.57
64874;HTU21D;51367;45.204;38.576;2022-11-15T12:20:37;9.65;67.59
64874;HTU21D;51367;45.204;38.576;2022-11-15T12:23:16;9.64;67.80
64874;HTU21D;51367;45.204;38.576;2022-11-15T12:25:54;9.63;67.85
64874;HTU21D;51367;45.204;38.576;2022-11-15T12:31:13;9.57;67.55
64874;HTU21D;51367;45.204;38.576;2022-11-15T12:33:46;9.54;67.57
64874;HTU21D;51367;45.204;38.576;2022-11-15T12:39:09;9.49;66.42
64874;HTU21D;51367;45.204;38.576;2022-11-15T12:41:37;9.46;66.99
64874;HTU21D;51367;45.204;38.576;2022-11-15T12:44:09;9.42;67.36
64874;HTU21D;51367;45.204;38.576;2022-11-15T12:52:05;9.36;67.23
64874;HTU21D;51367;45.204;38.576;2022-11-15T12:59:58;9.27;66.75
64874;HTU21D;51367;45.204;38.576;2022-11-15T13:13:03;9.04;67.07
64874;HTU21D;51367;45.204;38.576;2022-11-15T13:15:33;9.00;66.96
64874;HTU21D;51367;45.204;38.576;2022-11-15T13:18:25;8.93;67.08
64874;HTU21D;51367;45.204;38.576;2022-11-15T13:20:52;8.87;67.19
64874;HTU21D;51367;45.204;38.576;2022-11-15T13:23:19;8.82;67.44
64874;HTU21D;51367;45.204;38.576;2022-11-15T13:26:05;8.76;67.62
64874;HTU21D;51367;45.204;38.576;2022-11-15T13:28:39;8.68;67.70
64874;HTU21D;51367;45.204;38.576;2022-11-15T13:31:24;8.60;67.84
64874;HTU21D;51367;45.204;38.576;2022-11-15T13:33:52;8.53;67.91
64874;HTU21D;51367;45.204;38.576;2022-11-15T13:36:32;8.47;68.07
64874;HTU21D;51367;45.204;38.576;2022-11-15T13:39:12;8.38;68.23
64874;HTU21D;51367;45.204;38.576;2022-11-15T13:41:48;8.29;68.39
64874;HTU21D;51367;45.204;38.576;2022-11-15T13:46:48;8.12;68.72
64874;HTU21D;51367;45.204;38.576;2022-11-15T13:49:29;8.03;68.87
64874;HTU21D;51367;45.204;38.576;2022-11-15T13:51:56;7.94;69.00
64874;HTU21D;51367;45.204;38.576;2022-11-15T13:54:42;7.84;69.10
64874;HTU21D;51367;45.204;38.576;2022-11-15T13:57:30;7.74;69.25
64874;HTU21D;51367;45.204;38.576;2022-11-15T14:00:02;7.63;69.39
64874;HTU21D;51367;45.204;38.576;2022-11-15T14:02:37;7.54;69.52
64874;HTU21D;51367;45.204;38.576;2022-11-15T14:05:11;7.45;69.66
64874;HTU21D;51367;45.204;38.576;2022-11-15T14:07:39;7.34;69.80
64874;HTU21D;51367;45.204;38.576;2022-11-15T14:10:41;7.22;69.92
64874;HTU21D;51367;45.204;38.576;2022-11-15T14:13:29;7.12;70.07
64874;HTU21D;51367;45.204;38.576;2022-11-15T14:16:13;7.01;70.21
64874;HTU21D;51367;45.204;38.576;2022-11-15T14:18:46;6.93;70.36
64874;HTU21D;51367;45.204;38.576;2022-11-15T14:21:12;6.83;70.45
64874;HTU21D;51367;45.204;38.576;2022-11-15T14:23:38;6.74;70.57
64874;HTU21D;51367;45.204;38.576;2022-11-15T14:26:05;6.66;70.64
64874;HTU21D;51367;45.204;38.576;2022-11-15T14:28:33;6.57;70.75
64874;HTU21D;51367;45.204;38.576;2022-11-15T14:31:10;6.48;70.86
64874;HTU21D;51367;45.204;38.576;2022-11-15T14:33:38;6.40;70.96
64874;HTU21D;51367;45.204;38.576;2022-11-15T14:36:14;6.31;71.04
64874;HTU21D;51367;45.204;38.576;2022-11-15T14:38:41;6.22;71.13
64874;HTU21D;51367;45.204;38.576;2022-11-15T14:41:23;6.12;71.19
64874;HTU21D;51367;45.204;38.576;2022-11-15T14:43:50;6.04;71.29
64874;HTU21D;51367;45.204;38.576;2022-11-15T14:46:17;5.93;71.38
64874;HTU21D;51367;45.204;38.576;2022-11-15T14:48:43;5.84;71.48
64874;HTU21D;51367;45.204;38.576;2022-11-15T14:51:14;5.75;71.60
64874;HTU21D;51367;45.204;38.576;2022-11-15T14:53:41;5.67;71.69
64874;HTU21D;51367;45.204;38.576;2022-11-15T14:56:07;5.60;71.72
64874;HTU21D;51367;45.204;38.576;2022-11-15T14:58:33;5.51;71.81
64874;HTU21D;51367;45.204;38.576;2022-11-15T15:00:59;5.41;71.92
64874;HTU21D;51367;45.204;38.576;2022-11-15T15:03:27;5.35;72.02
64874;HTU21D;51367;45.204;38.576;2022-11-15T15:05:53;5.27;72.09
64874;HTU21D;51367;45.204;38.576;2022-11-15T15:08:20;5.22;72.18
64874;HTU21D;51367;45.204;38.576;2022-11-15T15:10:46;5.18;72.21
64874;HTU21D;51367;45.204;38.576;2022-11-15T15:13:22;5.11;72.25
64874;HTU21D;51367;45.204;38.576;2022-11-15T15:15:50;5.06;72.25
64874;HTU21D;51367;45.204;38.576;2022-11-15T15:18:17;4.98;72.29
64874;HTU21D;51367;45.204;38.576;2022-11-15T15:20:45;4.92;72.33
64874;HTU21D;51367;45.204;38.576;2022-11-15T15:23:20;4.82;72.39
64874;HTU21D;51367;45.204;38.576;2022-11-15T15:25:47;4.75;72.47
64874;HTU21D;51367;45.204;38.576;2022-11-15T15:28:15;4.68;72.53
64874;HTU21D;51367;45.204;38.576;2022-11-15T15:30:41;4.62;72.58
64874;HTU21D;51367;45.204;38.576;2022-11-15T15:33:07;4.56;72.67
64874;HTU21D;51367;45.204;38.576;2022-11-15T15:35:34;4.49;72.72
64874;HTU21D;51367;45.204;38.576;2022-11-15T15:38:00;4.44;72.78
64874;HTU21D;51367;45.204;38.576;2022-11-15T15:40:29;4.36;72.83
64874;HTU21D;51367;45.204;38.576;2022-11-15T15:42:55;4.31;72.92
64874;HTU21D;51367;45.204;38.576;2022-11-15T15:45:22;4.26;73.01
64874;HTU21D;51367;45.204;38.576;2022-11-15T15:47:48;4.20;73.06
64874;HTU21D;51367;45.204;38.576;2022-11-15T15:50:26;4.14;73.09
64874;HTU21D;51367;45.204;38.576;2022-11-15T15:52:55;4.05;73.15
64874;HTU21D;51367;45.204;38.576;2022-11-15T15:55:21;4.02;73.20
64874;HTU21D;51367;45.204;38.576;2022-11-15T15:57:48;3.97;73.26
64874;HTU21D;51367;45.204;38.576;2022-11-15T16:00:15;3.90;73.32
64874;HTU21D;51367;45.204;38.576;2022-11-15T16:02:41;3.86;73.38
64874;HTU21D;51367;45.204;38.576;2022-11-15T16:05:09;3.83;73.46
64874;HTU21D;51367;45.204;38.576;2022-11-15T16:07:35;3.77;73.48
64874;HTU21D;51367;45.204;38.576;2022-11-15T16:12:40;3.71;73.57
64874;HTU21D;51367;45.204;38.576;2022-11-15T16:15:07;3.65;73.59
64874;HTU21D;51367;45.204;38.576;2022-11-15T16:17:37;3.62;73.62
64874;HTU21D;51367;45.204;38.576;2022-11-15T16:20:04;3.58;73.67
64874;HTU21D;51367;45.204;38.576;2022-11-15T16:22:30;3.55;73.71
64874;HTU21D;51367;45.204;38.576;2022-11-15T16:24:56;3.53;73.76
64874;HTU21D;51367;45.204;38.576;2022-11-15T16:27:23;3.49;73.79
64874;HTU21D;51367;45.204;38.576;2022-11-15T16:29:49;3.45;73.85
64874;HTU21D;51367;45.204;38.576;2022-11-15T16:32:15;3.42;73.92
64874;HTU21D;51367;45.204;38.576;2022-11-15T16:34:41;3.39;73.94
64874;HTU21D;51367;45.204;38.576;2022-11-15T16:37:25;3.34;73.96
64874;HTU21D;51367;45.204;38.576;2022-11-15T16:39:51;3.31;73.97
64874;HTU21D;51367;45.204;38.576;2022-11-15T16:42:17;3.26;74.03
64874;HTU21D;51367;45.204;38.576;2022-11-15T16:44:43;3.24;74.08
64874;HTU21D;51367;45.204;38.576;2022-11-15T16:47:19;3.19;74.12
64874;HTU21D;51367;45.204;38.576;2022-11-15T16:49:45;3.15;74.15
64874;HTU21D;51367;45.204;38.576;2022-11-15T16:52:11;3.11;74.22
64874;HTU21D;51367;45.204;38.576;2022-11-15T16:54:37;3.08;74.25
64874;HTU21D;51367;45.204;38.576;2022-11-15T16:57:03;3.04;74.30
64874;HTU21D;51367;45.204;38.576;2022-11-15T16:59:29;3.02;74.36
64874;HTU21D;51367;45.204;38.576;2022-11-15T17:01:58;2.98;74.39
64874;HTU21D;51367;45.204;38.576;2022-11-15T17:04:24;2.95;74.44
64874;HTU21D;51367;45.204;38.576;2022-11-15T17:06:52;2.93;74.48
64874;HTU21D;51367;45.204;38.576;2022-11-15T17:09:20;2.89;74.53
64874;HTU21D;51367;45.204;38.576;2022-11-15T17:11:49;2.86;74.59
64874;HTU21D;51367;45.204;38.576;2022-11-15T17:14:16;2.83;74.63
64874;HTU21D;51367;45.204;38.576;2022-11-15T17:16:42;2.81;74.68
64874;HTU21D;51367;45.204;38.576;2022-11-15T17:19:13;2.79;74.72
64874;HTU21D;51367;45.204;38.576;2022-11-15T17:21:42;2.74;74.73
64874;HTU21D;51367;45.204;38.576;2022-11-15T17:24:09;2.72;74.78
64874;HTU21D;51367;45.204;38.576;2022-11-15T17:26:35;2.69;74.83
64874;HTU21D;51367;45.204;38.576;2022-11-15T17:29:02;2.67;74.88
64874;HTU21D;51367;45.204;38.576;2022-11-15T17:31:29;2.64;74.92
64874;HTU21D;51367;45.204;38.576;2022-11-15T17:33:59;2.61;74.96
64874;HTU21D;51367;45.204;38.576;2022-11-15T17:36:25;2.59;74.99
64874;HTU21D;51367;45.204;38.576;2022-11-15T17:38:51;2.56;75.05
64874;HTU21D;51367;45.204;38.576;2022-11-15T17:41:17;2.53;75.11
64874;HTU21D;51367;45.204;38.576;2022-11-15T17:43:46;2.52;75.18
64874;HTU21D;51367;45.204;38.576;2022-11-15T17:46:15;2.50;75.28
64874;HTU21D;51367;45.204;38.576;2022-11-15T17:48:42;2.47;75.44
64874;HTU21D;51367;45.204;38.576;2022-11-15T17:51:13;2.47;75.53
64874;HTU21D;51367;45.204;38.576;2022-11-15T17:53:42;2.47;75.54
64874;HTU21D;51367;45.204;38.576;2022-11-15T17:56:16;2.45;75.56
64874;HTU21D;51367;45.204;38.576;2022-11-15T17:58:47;2.45;75.59
64874;HTU21D;51367;45.204;38.576;2022-11-15T18:01:22;2.44;75.64
64874;HTU21D;51367;45.204;38.576;2022-11-15T18:03:49;2.43;75.66
64874;HTU21D;51367;45.204;38.576;2022-11-15T18:06:16;2.42;75.67
64874;HTU21D;51367;45.204;38.576;2022-11-15T18:08:44;2.42;75.73
64874;HTU21D;51367;45.204;38.576;2022-11-15T18:11:16;2.41;75.76
64874;HTU21D;51367;45.204;38.576;2022-11-15T18:13:44;2.40;75.76
64874;HTU21D;51367;45.204;38.576;2022-11-15T18:16:13;2.37;75.83
64874;HTU21D;51367;45.204;38.576;2022-11-15T18:18:39;2.37;75.89
64874;HTU21D;51367;45.204;38.576;2022-11-15T18:21:16;2.35;75.92
64874;HTU21D;51367;45.204;38.576;2022-11-15T18:23:48;2.34;75.95
64874;HTU21D;51367;45.204;38.576;2022-11-15T18:26:16;2.32;75.97
64874;HTU21D;51367;45.204;38.576;2022-11-15T18:28:44;2.29;75.99
64874;HTU21D;51367;45.204;38.576;2022-11-15T18:31:31;2.26;76.04
64874;HTU21D;51367;45.204;38.576;2022-11-15T18:33:59;2.23;76.05
64874;HTU21D;51367;45.204;38.576;2022-11-15T18:36:27;2.21;76.08
64874;HTU21D;51367;45.204;38.576;2022-11-15T18:39:00;2.17;76.11
64874;HTU21D;51367;45.204;38.576;2022-11-15T18:41:30;2.13;76.15
64874;HTU21D;51367;45.204;38.576;2022-11-15T18:43:58;2.10;76.17
64874;HTU21D;51367;45.204;38.576;2022-11-15T18:46:27;2.05;76.17
64874;HTU21D;51367;45.204;38.576;2022-11-15T18:48:54;1.99;76.18
64874;HTU21D;51367;45.204;38.576;2022-11-15T18:51:23;1.92;76.18
64874;HTU21D;51367;45.204;38.576;2022-11-15T18:53:54;1.82;76.34
64874;HTU21D;51367;45.204;38.576;2022-11-15T18:56:21;1.77;76.47
64874;HTU21D;51367;45.204;38.576;2022-11-15T18:58:50;1.72;76.55
64874;HTU21D;51367;45.204;38.576;2022-11-15T19:01:27;1.69;76.60
64874;HTU21D;51367;45.204;38.576;2022-11-15T19:03:55;1.65;76.61
64874;HTU21D;51367;45.204;38.576;2022-11-15T19:06:25;1.64;76.65
64874;HTU21D;51367;45.204;38.576;2022-11-15T19:08:53;1.60;76.65
64874;HTU21D;51367;45.204;38.576;2022-11-15T19:11:21;1.55;76.68
64874;HTU21D;51367;45.204;38.576;2022-11-15T19:13:59;1.55;76.71
64874;HTU21D;51367;45.204;38.576;2022-11-15T19:16:29;1.50;76.71
64874;HTU21D;51367;45.204;38.576;2022-11-15T19:18:57;1.47;76.71
64874;HTU21D;51367;45.204;38.576;2022-11-15T19:21:24;1.45;76.73
64874;HTU21D;51367;45.204;38.576;2022-11-15T19:23:51;1.41;76.75
64874;HTU21D;51367;45.204;38.576;2022-11-15T19:26:21;1.37;76.74
64874;HTU21D;51367;45.204;38.576;2022-11-15T19:28:53;1.33;76.77
64874;HTU21D;51367;45.204;38.576;2022-11-15T19:31:20;1.27;76.79
64874;HTU21D;51367;45.204;38.576;2022-11-15T19:33:48;1.24;76.83
64874;HTU21D;51367;45.204;38.576;2022-11-15T19:36:20;1.20;76.85
64874;HTU21D;51367;45.204;38.576;2022-11-15T19:38:47;1.14;76.89
64874;HTU21D;51367;45.204;38.576;2022-11-15T19:41:16;1.11;76.93
64874;HTU21D;51367;45.204;38.576;2022-11-15T19:43:43;1.07;76.97
64874;HTU21D;51367;45.204;38.576;2022-11-15T19:46:10;1.05;77.02
64874;HTU21D;51367;45.204;38.576;2022-11-15T19:48:37;1.01;77.03
64874;HTU21D;51367;45.204;38.576;2022-11-15T19:51:09;0.98;77.05
64874;HTU21D;51367;45.204;38.576;2022-11-15T19:53:36;0.95;77.07
64874;HTU21D;51367;45.204;38.576;2022-11-15T19:56:07;0.90;77.05
64874;HTU21D;51367;45.204;38.576;2022-11-15T19:58:33;0.83;77.08
64874;HTU21D;51367;45.204;38.576;2022-11-15T20:01:16;0.77;77.21
64874;HTU21D;51367;45.204;38.576;2022-11-15T20:03:43;0.75;77.27
64874;HTU21D;51367;45.204;38.576;2022-11-15T20:06:15;0.67;77.29
64874;HTU21D;51367;45.204;38.576;2022-11-15T20:08:42;0.60;77.40
64874;HTU21D;51367;45.204;38.576;2022-11-15T20:11:09;0.55;77.46
64874;HTU21D;51367;45.204;38.576;2022-11-15T20:13:35;0.49;77.53
64874;HTU21D;51367;45.204;38.576;2022-11-15T20:16:01;0.46;77.63
64874;HTU21D;51367;45.204;38.576;2022-11-15T20:18:29;0.45;77.66
64874;HTU21D;51367;45.204;38.576;2022-11-15T20:20:55;0.43;77.70
64874;HTU21D;51367;45.204;38.576;2022-11-15T20:23:26;0.42;77.74
64874;HTU21D;51367;45.204;38.576;2022-11-15T20:25:53;0.40;77.72
64874;HTU21D;51367;45.204;38.576;2022-11-15T20:28:21;0.39;77.68
64874;HTU21D;51367;45.204;38.576;2022-11-15T20:30:51;0.38;77.65
64874;HTU21D;51367;45.204;38.576;2022-11-15T20:33:17;0.35;77.63
64874;HTU21D;51367;45.204;38.576;2022-11-15T20:35:43;0.33;77.60
64874;HTU21D;51367;45.204;38.576;2022-11-15T20:38:11;0.28;77.58
64874;HTU21D;51367;45.204;38.576;2022-11-15T20:40:38;0.27;77.60
64874;HTU21D;51367;45.204;38.576;2022-11-15T20:43:04;0.22;77.63
64874;HTU21D;51367;45.204;38.576;2022-11-15T20:45:31;0.20;77.62
64874;HTU21D;51367;45.204;38.576;2022-11-15T20:47:57;0.15;77.65
64874;HTU21D;51367;45.204;38.576;2022-11-15T20:50:24;0.13;77.71
64874;HTU21D;51367;45.204;38.576;2022-11-15T20:52:51;0.12;77.75
64874;HTU21D;51367;45.204;38.576;2022-11-15T20:55:17;0.10;77.73
64874;HTU21D;51367;45.204;38.576;2022-11-15T20:57:44;0.09;77.76
64874;HTU21D;51367;45.204;38.576;2022-11-15T21:00:10;0.08;77.73
64874;HTU21D;51367;45.204;38.576;2022-11-15T21:02:36;0.05;77.72
64874;HTU21D;51367;45.204;38.576;2022-11-15T21:05:04;0.02;77.73
64874;HTU21D;51367;45.204;38.576;2022-11-15T21:07:30;-0.01;77.73
64874;HTU21D;51367;45.204;38.576;2022-11-15T21:09:56;-0.03;77.76
64874;HTU21D;51367;45.204;38.576;2022-11-15T21:12:40;-0.05;77.82
64874;HTU21D;51367;45.204;38.576;2022-11-15T21:15:07;-0.03;77.86
64874;HTU21D;51367;45.204;38.576;2022-11-15T21:17:33;-0.06;77.84
64874;HTU21D;51367;45.204;38.576;2022-11-15T21:19:59;-0.07;77.85
64874;HTU21D;51367;45.204;38.576;2022-11-15T21:22:26;-0.09;77.89
64874;HTU21D;51367;45.204;38.576;2022-11-15T21:24:52;-0.09;77.90
64874;HTU21D;51367;45.204;38.576;2022-11-15T21:27:18;-0.10;77.91
64874;HTU21D;51367;45.204;38.576;2022-11-15T21:29:45;-0.11;77.89
64874;HTU21D;51367;45.204;38.576;2022-11-15T21:32:40;-0.15;77.82
64874;HTU21D;51367;45.204;38.576;2022-11-15T21:35:06;-0.25;77.75
64874;HTU21D;51367;45.204;38.576;2022-11-15T21:37:32;-0.32;77.92
64874;HTU21D;51367;45.204;38.576;2022-11-15T21:39:58;-0.40;78.11
64874;HTU21D;51367;45.204;38.576;2022-11-15T21:42:24;-0.40;78.21
64874;HTU21D;51367;45.204;38.576;2022-11-15T21:44:52;-0.43;78.24
64874;HTU21D;51367;45.204;38.576;2022-11-15T21:47:18;-0.45;78.30
64874;HTU21D;51367;45.204;38.576;2022-11-15T21:49:44;-0.45;78.30
64874;HTU21D;51367;45.204;38.576;2022-11-15T21:52:10;-0.44;78.28
64874;HTU21D;51367;45.204;38.576;2022-11-15T21:54:36;-0.43;78.26
64874;HTU21D;51367;45.204;38.576;2022-11-15T21:57:03;-0.43;78.25
64874;HTU21D;51367;45.204;38.576;2022-11-15T21:59:29;-0.47;78.18
64874;HTU21D;51367;45.204;38.576;2022-11-15T22:01:55;-0.54;78.22
64874;HTU21D;51367;45.204;38.576;2022-11-15T22:04:39;-0.58;78.28
64874;HTU21D;51367;45.204;38.576;2022-11-15T22:07:06;-0.60;78.35
64874;HTU21D;51367;45.204;38.576;2022-11-15T22:09:32;-0.60;78.38
64874;HTU21D;51367;45.204;38.576;2022-11-15T22:11:58;-0.61;78.37
64874;HTU21D;51367;45.204;38.576;2022-11-15T22:14:24;-0.60;78.37
64874;HTU21D;51367;45.204;38.576;2022-11-15T22:16:50;-0.60;78.40
64874;HTU21D;51367;45.204;38.576;2022-11-15T22:19:16;-0.58;78.41
64874;HTU21D;51367;45.204;38.576;2022-11-15T22:21:42;-0.57;78.40
64874;HTU21D;51367;45.204;38.576;2022-11-15T22:24:08;-0.58;78.31
64874;HTU21D;51367;45.204;38.576;2022-11-15T22:26:34;-0.69;78.18
64874;HTU21D;51367;45.204;38.576;2022-11-15T22:29:00;-0.80;78.32
64874;HTU21D;51367;45.204;38.576;2022-11-15T22:31:26;-0.83;78.63
64874;HTU21D;51367;45.204;38.576;2022-11-15T22:33:53;-0.75;78.93
64874;HTU21D;51367;45.204;38.576;2022-11-15T22:36:19;-0.64;78.95
64874;HTU21D;51367;45.204;38.576;2022-11-15T22:38:45;-0.58;78.75
64874;HTU21D;51367;45.204;38.576;2022-11-15T22:41:11;-0.54;78.60
64874;HTU21D;51367;45.204;38.576;2022-11-15T22:43:37;-0.54;78.53
64874;HTU21D;51367;45.204;38.576;2022-11-15T22:46:04;-0.56;78.45
64874;HTU21D;51367;45.204;38.576;2022-11-15T22:48:32;-0.58;78.43
64874;HTU21D;51367;45.204;38.576;2022-11-15T22:50:59;-0.58;78.48
64874;HTU21D;51367;45.204;38.576;2022-11-15T22:53:25;-0.59;78.50
64874;HTU21D;51367;45.204;38.576;2022-11-15T22:55:59;-0.59;78.52
64874;HTU21D;51367;45.204;38.576;2022-11-15T22:58:27;-0.56;78.56
64874;HTU21D;51367;45.204;38.576;2022-11-15T23:00:56;-0.54;78.58
64874;HTU21D;51367;45.204;38.576;2022-11-15T23:03:22;-0.52;78.59
64874;HTU21D;51367;45.204;38.576;2022-11-15T23:05:49;-0.50;78.56
64874;HTU21D;51367;45.204;38.576;2022-11-15T23:08:16;-0.47;78.55
64874;HTU21D;51367;45.204;38.576;2022-11-15T23:10:43;-0.45;78.58
64874;HTU21D;51367;45.204;38.576;2022-11-15T23:13:29;-0.44;78.59
64874;HTU21D;51367;45.204;38.576;2022-11-15T23:16:07;-0.42;78.53
64874;HTU21D;51367;45.204;38.576;2022-11-15T23:18:56;-0.44;78.51
64874;HTU21D;51367;45.204;38.576;2022-11-15T23:21:30;-0.43;78.53
64874;HTU21D;51367;45.204;38.576;2022-11-15T23:24:15;-0.47;78.50
64874;HTU21D;51367;45.204;38.576;2022-11-15T23:26:43;-0.47;78.53
64874;HTU21D;51367;45.204;38.576;2022-11-15T23:29:11;-0.50;78.58
64874;HTU21D;51367;45.204;38.576;2022-11-15T23:31:37;-0.49;78.64
64874;HTU21D;51367;45.204;38.576;2022-11-15T23:34:22;-0.46;78.71
64874;HTU21D;51367;45.204;38.576;2022-11-15T23:36:48;-0.42;78.75
64874;HTU21D;51367;45.204;38.576;2022-11-15T23:39:14;-0.37;78.77
64874;HTU21D;51367;45.204;38.576;2022-11-15T23:41:40;-0.30;78.77
64874;HTU21D;51367;45.204;38.576;2022-11-15T23:44:07;-0.27;78.77
64874;HTU21D;51367;45.204;38.576;2022-11-15T23:46:33;-0.23;78.75
64874;HTU21D;51367;45.204;38.576;2022-11-15T23:48:59;-0.20;78.72
64874;HTU21D;51367;45.204;38.576;2022-11-15T23:51:26;-0.15;78.70
64874;HTU21D;51367;45.204;38.576;2022-11-15T23:53:52;-0.16;78.67
64874;HTU21D;51367;45.204;38.576;2022-11-15T23:56:19;-0.15;78.69
64874;HTU21D;51367;45.204;38.576;2022-11-15T23:58:46;-0.13;78.72
